sensor_id;sensor_type;location;lat;lon;timestamp;P1;durP1;ratioP1;P2;durP2;ratioP2
19551;SDS011;9921;47.186;9.778;2023-09-07T00:01:29;0.00;;;0.00;;
19551;SDS011;9921;47.186;9.778;2023-09-07T00:03:56;0.00;;;0.00;;
19551;SDS011;9921;47.186;9.778;2023-09-07T00:06:23;0.00;;;0.00;;
19551;SDS011;9921;47.186;9.778;2023-09-07T00:08:51;0.00;;;0.00;;
19551;SDS011;9921;47.186;9.778;2023-09-07T00:11:18;0.00;;;0.00;;
19551;SDS011;9921;47.186;9.778;2023-09-07T00:13:45;0.00;;;0.00;;
19551;SDS011;9921;47.186;9.778;2023-09-07T00:16:11;0.00;;;0.00;;
19551;SDS011;9921;47.186;9.778;2023-09-07T00:18:38;0.00;;;0.00;;
19551;SDS011;9921;47.186;9.778;2023-09-07T00:21:05;0.00;;;0.00;;
19551;SDS011;9921;47.186;9.778;2023-09-07T00:23:32;0.00;;;0.00;;
19551;SDS011;9921;47.186;9.778;2023-09-07T00:26:00;0.00;;;0.00;;
19551;SDS011;9921;47.186;9.778;2023-09-07T00:28:27;0.00;;;0.00;;
19551;SDS011;9921;47.186;9.778;2023-09-07T00:30:54;0.00;;;0.00;;
19551;SDS011;9921;47.186;9.778;2023-09-07T00:33:21;0.00;;;0.00;;
19551;SDS011;9921;47.186;9.778;2023-09-07T00:35:48;0.00;;;0.00;;
19551;SDS011;9921;47.186;9.778;2023-09-07T00:38:14;0.00;;;0.00;;
19551;SDS011;9921;47.186;9.778;2023-09-07T00:40:42;0.00;;;0.00;;
19551;SDS011;9921;47.186;9.778;2023-09-07T00:43:11;0.00;;;0.00;;
19551;SDS011;9921;47.186;9.778;2023-09-07T00:45:38;0.00;;;0.00;;
19551;SDS011;9921;47.186;9.778;2023-09-07T00:48:06;0.00;;;0.00;;
19551;SDS011;9921;47.186;9.778;2023-09-07T00:50:33;0.00;;;0.00;;
19551;SDS011;9921;47.186;9.778;2023-09-07T00:53:00;0.00;;;0.00;;
19551;SDS011;9921;47.186;9.778;2023-09-07T00:55:28;0.00;;;0.00;;
19551;SDS011;9921;47.186;9.778;2023-09-07T00:57:57;0.00;;;0.00;;
19551;SDS011;9921;47.186;9.778;2023-09-07T01:00:26;0.00;;;0.00;;
19551;SDS011;9921;47.186;9.778;2023-09-07T01:02:53;0.00;;;0.00;;
19551;SDS011;9921;47.186;9.778;2023-09-07T01:05:21;0.00;;;0.00;;
19551;SDS011;9921;47.186;9.778;2023-09-07T01:07:53;0.00;;;0.00;;
19551;SDS011;9921;47.186;9.778;2023-09-07T01:10:23;0.00;;;0.00;;
19551;SDS011;9921;47.186;9.778;2023-09-07T01:12:50;0.00;;;0.00;;
19551;SDS011;9921;47.186;9.778;2023-09-07T01:15:17;0.00;;;0.00;;
19551;SDS011;9921;47.186;9.778;2023-09-07T01:17:45;0.00;;;0.00;;
19551;SDS011;9921;47.186;9.778;2023-09-07T01:20:12;0.00;;;0.00;;
19551;SDS011;9921;47.186;9.778;2023-09-07T01:22:43;0.00;;;0.00;;
19551;SDS011;9921;47.186;9.778;2023-09-07T01:25:11;0.00;;;0.00;;
19551;SDS011;9921;47.186;9.778;2023-09-07T01:27:38;0.00;;;0.00;;
19551;SDS011;9921;47.186;9.778;2023-09-07T01:30:06;0.00;;;0.00;;
19551;SDS011;9921;47.186;9.778;2023-09-07T01:32:34;0.00;;;0.00;;
19551;SDS011;9921;47.186;9.778;2023-09-07T01:35:01;0.00;;;0.00;;
19551;SDS011;9921;47.186;9.778;2023-09-07T01:37:31;0.00;;;0.00;;
19551;SDS011;9921;47.186;9.778;2023-09-07T01:39:59;0.00;;;0.00;;
19551;SDS011;9921;47.186;9.778;2023-09-07T01:42:29;0.00;;;0.00;;
19551;SDS011;9921;47.186;9.778;2023-09-07T01:44:56;0.00;;;0.00;;
19551;SDS011;9921;47.186;9.778;2023-09-07T01:47:23;0.00;;;0.00;;
19551;SDS011;9921;47.186;9.778;2023-09-07T01:49:49;0.00;;;0.00;;
19551;SDS011;9921;47.186;9.778;2023-09-07T01:52:16;0.00;;;0.00;;
19551;SDS011;9921;47.186;9.778;2023-09-07T01:54:43;0.00;;;0.00;;
19551;SDS011;9921;47.186;9.778;2023-09-07T01:57:11;0.00;;;0.00;;
19551;SDS011;9921;47.186;9.778;2023-09-07T01:59:38;0.00;;;0.00;;
19551;SDS011;9921;47.186;9.778;2023-09-07T02:02:05;0.00;;;0.00;;
19551;SDS011;9921;47.186;9.778;2023-09-07T02:04:32;0.00;;;0.00;;
19551;SDS011;9921;47.186;9.778;2023-09-07T02:06:59;0.00;;;0.00;;
19551;SDS011;9921;47.186;9.778;2023-09-07T02:09:26;0.00;;;0.00;;
19551;SDS011;9921;47.186;9.778;2023-09-07T02:11:54;0.00;;;0.00;;
19551;SDS011;9921;47.186;9.778;2023-09-07T02:14:22;0.00;;;0.00;;
19551;SDS011;9921;47.186;9.778;2023-09-07T02:16:49;0.00;;;0.00;;
19551;SDS011;9921;47.186;9.778;2023-09-07T02:19:15;0.00;;;0.00;;
19551;SDS011;9921;47.186;9.778;2023-09-07T02:21:42;0.00;;;0.00;;
19551;SDS011;9921;47.186;9.778;2023-09-07T02:24:09;0.00;;;0.00;;
19551;SDS011;9921;47.186;9.778;2023-09-07T02:26:36;0.00;;;0.00;;
19551;SDS011;9921;47.186;9.778;2023-09-07T02:29:08;0.00;;;0.00;;
19551;SDS011;9921;47.186;9.778;2023-09-07T02:31:36;0.00;;;0.00;;
19551;SDS011;9921;47.186;9.778;2023-09-07T02:34:06;0.00;;;0.00;;
19551;SDS011;9921;47.186;9.778;2023-09-07T02:36:33;0.00;;;0.00;;
19551;SDS011;9921;47.186;9.778;2023-09-07T02:39:00;0.00;;;0.00;;
19551;SDS011;9921;47.186;9.778;2023-09-07T02:41:28;0.00;;;0.00;;
19551;SDS011;9921;47.186;9.778;2023-09-07T02:43:57;0.00;;;0.00;;
19551;SDS011;9921;47.186;9.778;2023-09-07T02:46:23;0.00;;;0.00;;
19551;SDS011;9921;47.186;9.778;2023-09-07T02:48:51;0.00;;;0.00;;
19551;SDS011;9921;47.186;9.778;2023-09-07T02:51:22;0.00;;;0.00;;
19551;SDS011;9921;47.186;9.778;2023-09-07T02:53:48;0.00;;;0.00;;
19551;SDS011;9921;47.186;9.778;2023-09-07T02:56:15;0.00;;;0.00;;
19551;SDS011;9921;47.186;9.778;2023-09-07T02:58:43;0.00;;;0.00;;
19551;SDS011;9921;47.186;9.778;2023-09-07T03:01:10;0.00;;;0.00;;
19551;SDS011;9921;47.186;9.778;2023-09-07T03:03:38;0.00;;;0.00;;
19551;SDS011;9921;47.186;9.778;2023-09-07T03:06:09;0.00;;;0.00;;
19551;SDS011;9921;47.186;9.778;2023-09-07T03:08:36;0.00;;;0.00;;
19551;SDS011;9921;47.186;9.778;2023-09-07T03:11:03;0.00;;;0.00;;
19551;SDS011;9921;47.186;9.778;2023-09-07T03:13:30;0.00;;;0.00;;
19551;SDS011;9921;47.186;9.778;2023-09-07T03:15:57;0.00;;;0.00;;
19551;SDS011;9921;47.186;9.778;2023-09-07T03:18:24;0.00;;;0.00;;
19551;SDS011;9921;47.186;9.778;2023-09-07T03:20:53;0.00;;;0.00;;
19551;SDS011;9921;47.186;9.778;2023-09-07T03:23:22;0.00;;;0.00;;
19551;SDS011;9921;47.186;9.778;2023-09-07T03:25:49;0.00;;;0.00;;
19551;SDS011;9921;47.186;9.778;2023-09-07T03:28:16;0.00;;;0.00;;
19551;SDS011;9921;47.186;9.778;2023-09-07T03:30:43;0.00;;;0.00;;
19551;SDS011;9921;47.186;9.778;2023-09-07T03:33:10;0.00;;;0.00;;
19551;SDS011;9921;47.186;9.778;2023-09-07T03:35:36;0.00;;;0.00;;
19551;SDS011;9921;47.186;9.778;2023-09-07T03:38:06;0.00;;;0.00;;
19551;SDS011;9921;47.186;9.778;2023-09-07T03:40:35;0.00;;;0.00;;
19551;SDS011;9921;47.186;9.778;2023-09-07T03:43:02;0.00;;;0.00;;
19551;SDS011;9921;47.186;9.778;2023-09-07T03:45:29;0.00;;;0.00;;
19551;SDS011;9921;47.186;9.778;2023-09-07T03:47:56;0.00;;;0.00;;
19551;SDS011;9921;47.186;9.778;2023-09-07T03:50:23;0.00;;;0.00;;
19551;SDS011;9921;47.186;9.778;2023-09-07T03:52:50;0.00;;;0.00;;
19551;SDS011;9921;47.186;9.778;2023-09-07T03:55:17;0.00;;;0.00;;
19551;SDS011;9921;47.186;9.778;2023-09-07T03:57:45;0.00;;;0.00;;
19551;SDS011;9921;47.186;9.778;2023-09-07T04:00:13;0.00;;;0.00;;
19551;SDS011;9921;47.186;9.778;2023-09-07T04:02:41;0.00;;;0.00;;
19551;SDS011;9921;47.186;9.778;2023-09-07T04:05:08;0.00;;;0.00;;
19551;SDS011;9921;47.186;9.778;2023-09-07T04:07:35;0.00;;;0.00;;
19551;SDS011;9921;47.186;9.778;2023-09-07T04:10:03;0.00;;;0.00;;
19551;SDS011;9921;47.186;9.778;2023-09-07T04:12:30;0.00;;;0.00;;
19551;SDS011;9921;47.186;9.778;2023-09-07T04:14:59;0.00;;;0.00;;
19551;SDS011;9921;47.186;9.778;2023-09-07T04:17:28;0.00;;;0.00;;
19551;SDS011;9921;47.186;9.778;2023-09-07T04:19:54;0.00;;;0.00;;
19551;SDS011;9921;47.186;9.778;2023-09-07T04:22:21;0.00;;;0.00;;
19551;SDS011;9921;47.186;9.778;2023-09-07T04:24:48;0.00;;;0.00;;
19551;SDS011;9921;47.186;9.778;2023-09-07T04:27:15;0.00;;;0.00;;
19551;SDS011;9921;47.186;9.778;2023-09-07T04:29:42;0.00;;;0.00;;
19551;SDS011;9921;47.186;9.778;2023-09-07T04:32:10;0.00;;;0.00;;
19551;SDS011;9921;47.186;9.778;2023-09-07T04:34:37;0.00;;;0.00;;
19551;SDS011;9921;47.186;9.778;2023-09-07T04:37:04;0.00;;;0.00;;
19551;SDS011;9921;47.186;9.778;2023-09-07T04:39:31;0.00;;;0.00;;
19551;SDS011;9921;47.186;9.778;2023-09-07T04:41:58;0.00;;;0.00;;
19551;SDS011;9921;47.186;9.778;2023-09-07T04:44:25;0.00;;;0.00;;
19551;SDS011;9921;47.186;9.778;2023-09-07T04:46:54;0.00;;;0.00;;
19551;SDS011;9921;47.186;9.778;2023-09-07T04:49:23;0.00;;;0.00;;
19551;SDS011;9921;47.186;9.778;2023-09-07T04:51:52;0.00;;;0.00;;
19551;SDS011;9921;47.186;9.778;2023-09-07T04:54:19;0.00;;;0.00;;
19551;SDS011;9921;47.186;9.778;2023-09-07T04:56:46;0.00;;;0.00;;
19551;SDS011;9921;47.186;9.778;2023-09-07T04:59:13;0.00;;;0.00;;
19551;SDS011;9921;47.186;9.778;2023-09-07T05:01:40;0.00;;;0.00;;
19551;SDS011;9921;47.186;9.778;2023-09-07T05:04:07;0.00;;;0.00;;
19551;SDS011;9921;47.186;9.778;2023-09-07T05:06:35;0.00;;;0.00;;
19551;SDS011;9921;47.186;9.778;2023-09-07T05:09:03;0.00;;;0.00;;
19551;SDS011;9921;47.186;9.778;2023-09-07T05:11:30;0.00;;;0.00;;
19551;SDS011;9921;47.186;9.778;2023-09-07T05:13:59;0.00;;;0.00;;
19551;SDS011;9921;47.186;9.778;2023-09-07T05:16:26;0.00;;;0.00;;
19551;SDS011;9921;47.186;9.778;2023-09-07T05:18:53;0.00;;;0.00;;
19551;SDS011;9921;47.186;9.778;2023-09-07T05:21:20;0.00;;;0.00;;
19551;SDS011;9921;47.186;9.778;2023-09-07T05:23:48;0.00;;;0.00;;
19551;SDS011;9921;47.186;9.778;2023-09-07T05:26:20;0.00;;;0.00;;
19551;SDS011;9921;47.186;9.778;2023-09-07T05:28:47;0.00;;;0.00;;
19551;SDS011;9921;47.186;9.778;2023-09-07T05:31:14;0.00;;;0.00;;
19551;SDS011;9921;47.186;9.778;2023-09-07T05:33:41;0.00;;;0.00;;
19551;SDS011;9921;47.186;9.778;2023-09-07T05:36:08;0.00;;;0.00;;
19551;SDS011;9921;47.186;9.778;2023-09-07T05:38:34;0.00;;;0.00;;
19551;SDS011;9921;47.186;9.778;2023-09-07T05:41:03;0.00;;;0.00;;
19551;SDS011;9921;47.186;9.778;2023-09-07T05:43:30;0.00;;;0.00;;
19551;SDS011;9921;47.186;9.778;2023-09-07T05:45:57;0.00;;;0.00;;
19551;SDS011;9921;47.186;9.778;2023-09-07T05:48:24;0.00;;;0.00;;
19551;SDS011;9921;47.186;9.778;2023-09-07T05:50:51;0.00;;;0.00;;
19551;SDS011;9921;47.186;9.778;2023-09-07T05:53:18;0.00;;;0.00;;
19551;SDS011;9921;47.186;9.778;2023-09-07T05:55:45;0.00;;;0.00;;
19551;SDS011;9921;47.186;9.778;2023-09-07T05:58:14;0.00;;;0.00;;
19551;SDS011;9921;47.186;9.778;2023-09-07T06:00:41;0.00;;;0.00;;
19551;SDS011;9921;47.186;9.778;2023-09-07T06:03:08;0.00;;;0.00;;
19551;SDS011;9921;47.186;9.778;2023-09-07T06:05:36;0.00;;;0.00;;
19551;SDS011;9921;47.186;9.778;2023-09-07T06:08:04;0.00;;;0.00;;
19551;SDS011;9921;47.186;9.778;2023-09-07T06:10:31;0.00;;;0.00;;
19551;SDS011;9921;47.186;9.778;2023-09-07T06:12:58;0.00;;;0.00;;
19551;SDS011;9921;47.186;9.778;2023-09-07T06:15:27;0.00;;;0.00;;
19551;SDS011;9921;47.186;9.778;2023-09-07T06:17:55;0.00;;;0.00;;
19551;SDS011;9921;47.186;9.778;2023-09-07T06:20:22;0.00;;;0.00;;
19551;SDS011;9921;47.186;9.778;2023-09-07T06:22:49;0.00;;;0.00;;
19551;SDS011;9921;47.186;9.778;2023-09-07T06:25:15;0.00;;;0.00;;
19551;SDS011;9921;47.186;9.778;2023-09-07T06:27:42;0.00;;;0.00;;
19551;SDS011;9921;47.186;9.778;2023-09-07T06:30:09;0.00;;;0.00;;
19551;SDS011;9921;47.186;9.778;2023-09-07T06:32:38;0.00;;;0.00;;
19551;SDS011;9921;47.186;9.778;2023-09-07T06:35:05;0.00;;;0.00;;
19551;SDS011;9921;47.186;9.778;2023-09-07T06:37:33;0.00;;;0.00;;
19551;SDS011;9921;47.186;9.778;2023-09-07T06:40:00;0.00;;;0.00;;
19551;SDS011;9921;47.186;9.778;2023-09-07T06:42:28;0.00;;;0.00;;
19551;SDS011;9921;47.186;9.778;2023-09-07T06:44:56;0.00;;;0.00;;
19551;SDS011;9921;47.186;9.778;2023-09-07T06:47:23;0.00;;;0.00;;
19551;SDS011;9921;47.186;9.778;2023-09-07T06:49:51;0.00;;;0.00;;
19551;SDS011;9921;47.186;9.778;2023-09-07T06:52:19;0.00;;;0.00;;
19551;SDS011;9921;47.186;9.778;2023-09-07T06:54:45;0.00;;;0.00;;
19551;SDS011;9921;47.186;9.778;2023-09-07T06:57:14;0.00;;;0.00;;
19551;SDS011;9921;47.186;9.778;2023-09-07T06:59:41;0.00;;;0.00;;
19551;SDS011;9921;47.186;9.778;2023-09-07T07:02:08;0.00;;;0.00;;
19551;SDS011;9921;47.186;9.778;2023-09-07T07:04:36;0.00;;;0.00;;
19551;SDS011;9921;47.186;9.778;2023-09-07T07:07:04;0.00;;;0.00;;
19551;SDS011;9921;47.186;9.778;2023-09-07T07:09:31;0.00;;;0.00;;
19551;SDS011;9921;47.186;9.778;2023-09-07T07:11:59;0.00;;;0.00;;
19551;SDS011;9921;47.186;9.778;2023-09-07T07:14:26;0.00;;;0.00;;
19551;SDS011;9921;47.186;9.778;2023-09-07T07:16:53;0.00;;;0.00;;
19551;SDS011;9921;47.186;9.778;2023-09-07T07:19:19;0.00;;;0.00;;
19551;SDS011;9921;47.186;9.778;2023-09-07T07:21:47;0.00;;;0.00;;
19551;SDS011;9921;47.186;9.778;2023-09-07T07:24:18;0.00;;;0.00;;
19551;SDS011;9921;47.186;9.778;2023-09-07T07:26:45;0.00;;;0.00;;
19551;SDS011;9921;47.186;9.778;2023-09-07T07:29:12;0.00;;;0.00;;
19551;SDS011;9921;47.186;9.778;2023-09-07T07:31:39;0.00;;;0.00;;
19551;SDS011;9921;47.186;9.778;2023-09-07T07:34:06;0.00;;;0.00;;
19551;SDS011;9921;47.186;9.778;2023-09-07T07:36:33;0.00;;;0.00;;
19551;SDS011;9921;47.186;9.778;2023-09-07T07:39:00;0.00;;;0.00;;
19551;SDS011;9921;47.186;9.778;2023-09-07T07:41:30;0.00;;;0.00;;
19551;SDS011;9921;47.186;9.778;2023-09-07T07:43:57;0.00;;;0.00;;
19551;SDS011;9921;47.186;9.778;2023-09-07T07:46:24;0.00;;;0.00;;
19551;SDS011;9921;47.186;9.778;2023-09-07T07:48:52;0.03;;;0.03;;
19551;SDS011;9921;47.186;9.778;2023-09-07T07:51:19;0.00;;;0.00;;
19551;SDS011;9921;47.186;9.778;2023-09-07T07:53:46;0.00;;;0.00;;
19551;SDS011;9921;47.186;9.778;2023-09-07T07:56:15;0.10;;;0.10;;
19551;SDS011;9921;47.186;9.778;2023-09-07T07:58:44;0.00;;;0.00;;
19551;SDS011;9921;47.186;9.778;2023-09-07T08:01:15;0.00;;;0.00;;
19551;SDS011;9921;47.186;9.778;2023-09-07T08:03:43;0.10;;;0.10;;
19551;SDS011;9921;47.186;9.778;2023-09-07T08:06:10;0.10;;;0.10;;
19551;SDS011;9921;47.186;9.778;2023-09-07T08:08:39;0.10;;;0.10;;
19551;SDS011;9921;47.186;9.778;2023-09-07T08:11:06;0.20;;;0.20;;
19551;SDS011;9921;47.186;9.778;2023-09-07T08:13:34;0.10;;;0.10;;
19551;SDS011;9921;47.186;9.778;2023-09-07T08:16:02;0.10;;;0.10;;
19551;SDS011;9921;47.186;9.778;2023-09-07T08:18:31;0.20;;;0.20;;
19551;SDS011;9921;47.186;9.778;2023-09-07T08:20:59;0.20;;;0.20;;
19551;SDS011;9921;47.186;9.778;2023-09-07T08:23:26;0.10;;;0.10;;
19551;SDS011;9921;47.186;9.778;2023-09-07T08:25:53;0.10;;;0.10;;
19551;SDS011;9921;47.186;9.778;2023-09-07T08:28:20;0.20;;;0.20;;
19551;SDS011;9921;47.186;9.778;2023-09-07T08:30:51;0.20;;;0.20;;
19551;SDS011;9921;47.186;9.778;2023-09-07T08:33:21;0.20;;;0.20;;
19551;SDS011;9921;47.186;9.778;2023-09-07T08:35:54;0.20;;;0.20;;
19551;SDS011;9921;47.186;9.778;2023-09-07T08:38:22;0.20;;;0.20;;
19551;SDS011;9921;47.186;9.778;2023-09-07T08:40:53;0.20;;;0.20;;
19551;SDS011;9921;47.186;9.778;2023-09-07T08:43:20;0.20;;;0.20;;
19551;SDS011;9921;47.186;9.778;2023-09-07T08:45:49;0.20;;;0.20;;
19551;SDS011;9921;47.186;9.778;2023-09-07T08:48:20;0.20;;;0.20;;
19551;SDS011;9921;47.186;9.778;2023-09-07T08:50:48;0.20;;;0.20;;
19551;SDS011;9921;47.186;9.778;2023-09-07T08:53:17;0.30;;;0.30;;
19551;SDS011;9921;47.186;9.778;2023-09-07T08:55:45;0.20;;;0.20;;
19551;SDS011;9921;47.186;9.778;2023-09-07T08:58:12;0.30;;;0.30;;
19551;SDS011;9921;47.186;9.778;2023-09-07T09:00:40;0.30;;;0.30;;
19551;SDS011;9921;47.186;9.778;2023-09-07T09:03:09;0.20;;;0.20;;
19551;SDS011;9921;47.186;9.778;2023-09-07T09:05:39;0.28;;;0.28;;
19551;SDS011;9921;47.186;9.778;2023-09-07T09:08:06;0.20;;;0.20;;
19551;SDS011;9921;47.186;9.778;2023-09-07T09:10:33;0.20;;;0.20;;
19551;SDS011;9921;47.186;9.778;2023-09-07T09:13:00;0.20;;;0.20;;
19551;SDS011;9921;47.186;9.778;2023-09-07T09:15:27;0.28;;;0.28;;
19551;SDS011;9921;47.186;9.778;2023-09-07T09:17:54;0.30;;;0.30;;
19551;SDS011;9921;47.186;9.778;2023-09-07T09:20:22;0.25;;;0.25;;
19551;SDS011;9921;47.186;9.778;2023-09-07T09:22:53;0.30;;;0.30;;
19551;SDS011;9921;47.186;9.778;2023-09-07T09:25:21;0.30;;;0.30;;
19551;SDS011;9921;47.186;9.778;2023-09-07T09:27:48;0.30;;;0.30;;
19551;SDS011;9921;47.186;9.778;2023-09-07T09:30:15;0.30;;;0.30;;
19551;SDS011;9921;47.186;9.778;2023-09-07T09:32:42;0.30;;;0.30;;
19551;SDS011;9921;47.186;9.778;2023-09-07T09:35:10;0.30;;;0.30;;
19551;SDS011;9921;47.186;9.778;2023-09-07T09:37:43;0.30;;;0.30;;
19551;SDS011;9921;47.186;9.778;2023-09-07T09:40:13;0.30;;;0.30;;
19551;SDS011;9921;47.186;9.778;2023-09-07T09:42:41;0.30;;;0.30;;
19551;SDS011;9921;47.186;9.778;2023-09-07T09:45:09;0.30;;;0.30;;
19551;SDS011;9921;47.186;9.778;2023-09-07T09:47:38;0.30;;;0.30;;
19551;SDS011;9921;47.186;9.778;2023-09-07T09:50:08;0.30;;;0.30;;
19551;SDS011;9921;47.186;9.778;2023-09-07T09:52:38;0.30;;;0.30;;
19551;SDS011;9921;47.186;9.778;2023-09-07T09:55:05;0.30;;;0.30;;
19551;SDS011;9921;47.186;9.778;2023-09-07T09:57:39;0.30;;;0.30;;
19551;SDS011;9921;47.186;9.778;2023-09-07T10:00:06;0.30;;;0.30;;
19551;SDS011;9921;47.186;9.778;2023-09-07T10:02:45;0.30;;;0.30;;
19551;SDS011;9921;47.186;9.778;2023-09-07T10:05:25;0.30;;;0.30;;
19551;SDS011;9921;47.186;9.778;2023-09-07T10:07:52;0.30;;;0.30;;
19551;SDS011;9921;47.186;9.778;2023-09-07T10:10:26;0.30;;;0.30;;
19551;SDS011;9921;47.186;9.778;2023-09-07T10:12:59;0.30;;;0.30;;
19551;SDS011;9921;47.186;9.778;2023-09-07T10:15:26;0.30;;;0.30;;
19551;SDS011;9921;47.186;9.778;2023-09-07T10:18:04;0.30;;;0.30;;
19551;SDS011;9921;47.186;9.778;2023-09-07T10:20:49;0.28;;;0.28;;
19551;SDS011;9921;47.186;9.778;2023-09-07T10:23:17;0.30;;;0.30;;
19551;SDS011;9921;47.186;9.778;2023-09-07T10:25:47;0.20;;;0.20;;
19551;SDS011;9921;47.186;9.778;2023-09-07T10:28:31;0.30;;;0.30;;
19551;SDS011;9921;47.186;9.778;2023-09-07T10:31:01;0.22;;;0.22;;
19551;SDS011;9921;47.186;9.778;2023-09-07T10:33:30;0.20;;;0.20;;
19551;SDS011;9921;47.186;9.778;2023-09-07T10:35:57;0.30;;;0.30;;
19551;SDS011;9921;47.186;9.778;2023-09-07T10:38:24;0.20;;;0.20;;
19551;SDS011;9921;47.186;9.778;2023-09-07T10:40:55;0.20;;;0.20;;
19551;SDS011;9921;47.186;9.778;2023-09-07T10:43:25;0.20;;;0.20;;
19551;SDS011;9921;47.186;9.778;2023-09-07T10:45:53;0.20;;;0.20;;
19551;SDS011;9921;47.186;9.778;2023-09-07T10:48:21;0.20;;;0.20;;
19551;SDS011;9921;47.186;9.778;2023-09-07T10:50:48;0.20;;;0.20;;
19551;SDS011;9921;47.186;9.778;2023-09-07T10:53:24;0.20;;;0.20;;
19551;SDS011;9921;47.186;9.778;2023-09-07T10:55:53;0.20;;;0.20;;
19551;SDS011;9921;47.186;9.778;2023-09-07T10:58:29;0.20;;;0.20;;
19551;SDS011;9921;47.186;9.778;2023-09-07T11:00:58;0.20;;;0.20;;
19551;SDS011;9921;47.186;9.778;2023-09-07T11:03:26;0.20;;;0.20;;
19551;SDS011;9921;47.186;9.778;2023-09-07T11:05:54;0.20;;;0.20;;
19551;SDS011;9921;47.186;9.778;2023-09-07T11:08:24;0.20;;;0.20;;
19551;SDS011;9921;47.186;9.778;2023-09-07T11:10:51;0.20;;;0.20;;
19551;SDS011;9921;47.186;9.778;2023-09-07T11:13:18;0.20;;;0.20;;
19551;SDS011;9921;47.186;9.778;2023-09-07T11:15:47;0.20;;;0.20;;
19551;SDS011;9921;47.186;9.778;2023-09-07T11:18:18;0.20;;;0.20;;
19551;SDS011;9921;47.186;9.778;2023-09-07T11:20:45;0.20;;;0.20;;
19551;SDS011;9921;47.186;9.778;2023-09-07T11:23:12;0.20;;;0.20;;
19551;SDS011;9921;47.186;9.778;2023-09-07T11:25:39;0.20;;;0.20;;
19551;SDS011;9921;47.186;9.778;2023-09-07T11:28:09;0.20;;;0.20;;
19551;SDS011;9921;47.186;9.778;2023-09-07T11:30:36;0.20;;;0.20;;
19551;SDS011;9921;47.186;9.778;2023-09-07T11:33:15;0.20;;;0.20;;
19551;SDS011;9921;47.186;9.778;2023-09-07T11:35:44;0.20;;;0.20;;
19551;SDS011;9921;47.186;9.778;2023-09-07T11:38:12;0.20;;;0.20;;
19551;SDS011;9921;47.186;9.778;2023-09-07T11:40:41;0.20;;;0.20;;
19551;SDS011;9921;47.186;9.778;2023-09-07T11:43:09;0.20;;;0.20;;
19551;SDS011;9921;47.186;9.778;2023-09-07T11:45:37;0.20;;;0.20;;
19551;SDS011;9921;47.186;9.778;2023-09-07T11:48:04;0.15;;;0.15;;
19551;SDS011;9921;47.186;9.778;2023-09-07T11:50:35;0.20;;;0.20;;
19551;SDS011;9921;47.186;9.778;2023-09-07T11:53:03;0.15;;;0.15;;
19551;SDS011;9921;47.186;9.778;2023-09-07T11:55:30;0.20;;;0.20;;
19551;SDS011;9921;47.186;9.778;2023-09-07T11:57:56;0.10;;;0.10;;
19551;SDS011;9921;47.186;9.778;2023-09-07T12:00:23;0.17;;;0.17;;
19551;SDS011;9921;47.186;9.778;2023-09-07T12:02:50;0.20;;;0.20;;
19551;SDS011;9921;47.186;9.778;2023-09-07T12:05:17;0.10;;;0.10;;
19551;SDS011;9921;47.186;9.778;2023-09-07T12:07:46;0.20;;;0.20;;
19551;SDS011;9921;47.186;9.778;2023-09-07T12:10:12;0.20;;;0.20;;
19551;SDS011;9921;47.186;9.778;2023-09-07T12:12:39;0.20;;;0.20;;
19551;SDS011;9921;47.186;9.778;2023-09-07T12:15:07;0.20;;;0.20;;
19551;SDS011;9921;47.186;9.778;2023-09-07T12:17:36;0.20;;;0.20;;
19551;SDS011;9921;47.186;9.778;2023-09-07T12:20:03;0.20;;;0.20;;
19551;SDS011;9921;47.186;9.778;2023-09-07T12:22:34;0.20;;;0.20;;
19551;SDS011;9921;47.186;9.778;2023-09-07T12:25:04;0.20;;;0.20;;
19551;SDS011;9921;47.186;9.778;2023-09-07T12:27:32;0.20;;;0.20;;
19551;SDS011;9921;47.186;9.778;2023-09-07T12:29:59;0.10;;;0.10;;
19551;SDS011;9921;47.186;9.778;2023-09-07T12:32:31;0.20;;;0.20;;
19551;SDS011;9921;47.186;9.778;2023-09-07T12:34:58;0.20;;;0.20;;
19551;SDS011;9921;47.186;9.778;2023-09-07T12:37:27;0.20;;;0.20;;
19551;SDS011;9921;47.186;9.778;2023-09-07T12:39:54;0.10;;;0.10;;
19551;SDS011;9921;47.186;9.778;2023-09-07T12:42:22;0.10;;;0.10;;
19551;SDS011;9921;47.186;9.778;2023-09-07T12:44:49;0.13;;;0.13;;
19551;SDS011;9921;47.186;9.778;2023-09-07T12:47:16;0.17;;;0.17;;
19551;SDS011;9921;47.186;9.778;2023-09-07T12:49:43;0.20;;;0.20;;
19551;SDS011;9921;47.186;9.778;2023-09-07T12:52:09;0.20;;;0.20;;
19551;SDS011;9921;47.186;9.778;2023-09-07T12:54:37;0.20;;;0.20;;
19551;SDS011;9921;47.186;9.778;2023-09-07T12:57:04;0.20;;;0.20;;
19551;SDS011;9921;47.186;9.778;2023-09-07T12:59:33;0.20;;;0.20;;
19551;SDS011;9921;47.186;9.778;2023-09-07T13:02:00;0.20;;;0.20;;
19551;SDS011;9921;47.186;9.778;2023-09-07T13:04:27;0.17;;;0.17;;
19551;SDS011;9921;47.186;9.778;2023-09-07T13:06:54;0.10;;;0.10;;
19551;SDS011;9921;47.186;9.778;2023-09-07T13:09:21;0.10;;;0.10;;
19551;SDS011;9921;47.186;9.778;2023-09-07T13:11:48;0.10;;;0.10;;
19551;SDS011;9921;47.186;9.778;2023-09-07T13:14:15;0.10;;;0.10;;
19551;SDS011;9921;47.186;9.778;2023-09-07T13:16:43;0.10;;;0.10;;
19551;SDS011;9921;47.186;9.778;2023-09-07T13:19:10;0.10;;;0.10;;
19551;SDS011;9921;47.186;9.778;2023-09-07T13:21:37;0.10;;;0.10;;
19551;SDS011;9921;47.186;9.778;2023-09-07T13:24:04;0.10;;;0.10;;
19551;SDS011;9921;47.186;9.778;2023-09-07T13:26:31;0.10;;;0.10;;
19551;SDS011;9921;47.186;9.778;2023-09-07T13:28:58;0.10;;;0.10;;
19551;SDS011;9921;47.186;9.778;2023-09-07T13:31:25;0.10;;;0.10;;
19551;SDS011;9921;47.186;9.778;2023-09-07T13:33:53;0.10;;;0.10;;
19551;SDS011;9921;47.186;9.778;2023-09-07T13:36:20;0.20;;;0.20;;
19551;SDS011;9921;47.186;9.778;2023-09-07T13:38:47;0.20;;;0.20;;
19551;SDS011;9921;47.186;9.778;2023-09-07T13:41:14;0.10;;;0.10;;
19551;SDS011;9921;47.186;9.778;2023-09-07T13:43:40;0.13;;;0.13;;
19551;SDS011;9921;47.186;9.778;2023-09-07T13:46:07;0.20;;;0.20;;
19551;SDS011;9921;47.186;9.778;2023-09-07T13:48:34;0.20;;;0.20;;
19551;SDS011;9921;47.186;9.778;2023-09-07T13:51:02;0.10;;;0.10;;
19551;SDS011;9921;47.186;9.778;2023-09-07T13:53:29;0.10;;;0.10;;
19551;SDS011;9921;47.186;9.778;2023-09-07T13:55:56;0.20;;;0.20;;
19551;SDS011;9921;47.186;9.778;2023-09-07T13:58:23;0.10;;;0.10;;
19551;SDS011;9921;47.186;9.778;2023-09-07T14:00:50;0.20;;;0.20;;
19551;SDS011;9921;47.186;9.778;2023-09-07T14:03:16;0.10;;;0.10;;
19551;SDS011;9921;47.186;9.778;2023-09-07T14:05:43;0.10;;;0.10;;
19551;SDS011;9921;47.186;9.778;2023-09-07T14:08:12;0.10;;;0.10;;
19551;SDS011;9921;47.186;9.778;2023-09-07T14:10:39;0.10;;;0.10;;
19551;SDS011;9921;47.186;9.778;2023-09-07T14:13:06;0.10;;;0.10;;
19551;SDS011;9921;47.186;9.778;2023-09-07T14:15:32;0.10;;;0.10;;
19551;SDS011;9921;47.186;9.778;2023-09-07T14:17:59;0.10;;;0.10;;
19551;SDS011;9921;47.186;9.778;2023-09-07T14:20:27;0.10;;;0.10;;
19551;SDS011;9921;47.186;9.778;2023-09-07T14:22:54;0.13;;;0.13;;
19551;SDS011;9921;47.186;9.778;2023-09-07T14:25:24;0.10;;;0.10;;
19551;SDS011;9921;47.186;9.778;2023-09-07T14:27:51;0.10;;;0.10;;
19551;SDS011;9921;47.186;9.778;2023-09-07T14:30:18;0.10;;;0.10;;
19551;SDS011;9921;47.186;9.778;2023-09-07T14:32:45;0.10;;;0.10;;
19551;SDS011;9921;47.186;9.778;2023-09-07T14:35:14;0.15;;;0.15;;
19551;SDS011;9921;47.186;9.778;2023-09-07T14:37:41;0.10;;;0.10;;
19551;SDS011;9921;47.186;9.778;2023-09-07T14:40:08;0.10;;;0.10;;
19551;SDS011;9921;47.186;9.778;2023-09-07T14:42:36;0.10;;;0.10;;
19551;SDS011;9921;47.186;9.778;2023-09-07T14:45:03;0.15;;;0.15;;
19551;SDS011;9921;47.186;9.778;2023-09-07T14:47:31;0.10;;;0.10;;
19551;SDS011;9921;47.186;9.778;2023-09-07T14:49:58;0.10;;;0.10;;
19551;SDS011;9921;47.186;9.778;2023-09-07T14:52:25;0.10;;;0.10;;
19551;SDS011;9921;47.186;9.778;2023-09-07T14:54:52;0.10;;;0.10;;
19551;SDS011;9921;47.186;9.778;2023-09-07T14:57:19;0.13;;;0.13;;
19551;SDS011;9921;47.186;9.778;2023-09-07T14:59:47;0.10;;;0.10;;
19551;SDS011;9921;47.186;9.778;2023-09-07T15:02:15;0.10;;;0.10;;
19551;SDS011;9921;47.186;9.778;2023-09-07T15:04:42;0.10;;;0.10;;